• Bienvenue sur Pilotes Québec!
  • Bienvenue sur le site de Pilotes Québec, la nouvelle communauté des pilotes et aviateurs du Québec.
  • Calendrier des activités
  • sujets récents au forum...
  • Les nouvelles en bref...

Connexion


J'ai oublié mon mot de passe
Renvoyer l'e-mail de confirmation
 

Publicité

Vous aimeriez afficher une publicité pour joindre la communauté des pilotes professionnels et privé du Québec?  Cliquez ici pour en savoir plus!

Conditions actuelles

Click for Quebec, Quebec Forecast

METAR - Québec


2015/04/25 00:00
CYQB 250000Z 25012KT 15SM FEW020 OVC082 03/M02 A2968 RMK SC1AC8 SC TR SLP055

TAF - Québec


2015/04/24 18:39
TAF CYQB 241738Z 2418/2518 27012G22KT P6SM SCT025 OVC040
TEMPO 2418/2502 P6SM -SHRA OVC025
BECMG 2422/2424 29012KT
FM250200 VRB03KT 6SM -SHRA BR OVC025
TEMPO 2502/2518 5SM -RASN BR FEW005 OVC020
RMK NXT FCST BY 250000Z